sensor_id;sensor_type;location;lat;lon;timestamp;P1;durP1;ratioP1;P2;durP2;ratioP2
13698;SDS011;6921;53.642;9.956;2023-07-22T00:01:49;12.23;;;9.63;;
13698;SDS011;6921;53.642;9.956;2023-07-22T00:03:53;12.98;;;9.02;;
13698;SDS011;6921;53.642;9.956;2023-07-22T00:06:04;12.40;;;9.02;;
13698;SDS011;6921;53.642;9.956;2023-07-22T00:08:08;13.07;;;9.85;;
13698;SDS011;6921;53.642;9.956;2023-07-22T00:10:11;15.20;;;10.50;;
13698;SDS011;6921;53.642;9.956;2023-07-22T00:12:15;12.82;;;10.07;;
13698;SDS011;6921;53.642;9.956;2023-07-22T00:14:18;12.10;;;9.50;;
13698;SDS011;6921;53.642;9.956;2023-07-22T00:16:23;13.95;;;10.70;;
13698;SDS011;6921;53.642;9.956;2023-07-22T00:18:27;14.10;;;10.68;;
13698;SDS011;6921;53.642;9.956;2023-07-22T00:20:32;12.80;;;10.05;;
13698;SDS011;6921;53.642;9.956;2023-07-22T00:22:36;14.50;;;9.70;;
13698;SDS011;6921;53.642;9.956;2023-07-22T00:24:41;14.50;;;10.38;;
13698;SDS011;6921;53.642;9.956;2023-07-22T00:26:44;14.13;;;10.93;;
13698;SDS011;6921;53.642;9.956;2023-07-22T00:28:48;15.27;;;10.00;;
13698;SDS011;6921;53.642;9.956;2023-07-22T00:30:51;17.05;;;10.00;;
13698;SDS011;6921;53.642;9.956;2023-07-22T00:32:56;15.93;;;10.40;;
13698;SDS011;6921;53.642;9.956;2023-07-22T00:35:00;13.60;;;10.27;;
13698;SDS011;6921;53.642;9.956;2023-07-22T00:37:03;15.13;;;10.40;;
13698;SDS011;6921;53.642;9.956;2023-07-22T00:39:08;15.10;;;10.68;;
13698;SDS011;6921;53.642;9.956;2023-07-22T00:41:12;12.25;;;9.45;;
13698;SDS011;6921;53.642;9.956;2023-07-22T00:43:16;14.80;;;10.35;;
13698;SDS011;6921;53.642;9.956;2023-07-22T00:45:19;17.33;;;9.70;;
13698;SDS011;6921;53.642;9.956;2023-07-22T00:47:23;16.58;;;10.85;;
13698;SDS011;6921;53.642;9.956;2023-07-22T00:49:27;14.00;;;9.25;;
13698;SDS011;6921;53.642;9.956;2023-07-22T00:51:31;15.40;;;10.15;;
13698;SDS011;6921;53.642;9.956;2023-07-22T00:53:35;14.10;;;9.77;;
13698;SDS011;6921;53.642;9.956;2023-07-22T00:55:40;14.82;;;9.85;;
13698;SDS011;6921;53.642;9.956;2023-07-22T00:57:44;13.18;;;9.80;;
13698;SDS011;6921;53.642;9.956;2023-07-22T00:59:47;14.43;;;9.68;;
13698;SDS011;6921;53.642;9.956;2023-07-22T01:01:50;14.52;;;9.23;;
13698;SDS011;6921;53.642;9.956;2023-07-22T01:03:54;15.43;;;10.20;;
13698;SDS011;6921;53.642;9.956;2023-07-22T01:05:58;15.55;;;10.50;;
13698;SDS011;6921;53.642;9.956;2023-07-22T01:08:03;15.10;;;10.48;;
13698;SDS011;6921;53.642;9.956;2023-07-22T01:10:07;16.00;;;10.10;;
13698;SDS011;6921;53.642;9.956;2023-07-22T01:12:12;16.73;;;11.18;;
13698;SDS011;6921;53.642;9.956;2023-07-22T01:14:16;17.00;;;10.55;;
13698;SDS011;6921;53.642;9.956;2023-07-22T01:16:20;12.93;;;10.25;;
13698;SDS011;6921;53.642;9.956;2023-07-22T01:18:24;15.70;;;10.60;;
13698;SDS011;6921;53.642;9.956;2023-07-22T01:20:27;18.92;;;11.25;;
13698;SDS011;6921;53.642;9.956;2023-07-22T01:22:31;15.52;;;11.63;;
13698;SDS011;6921;53.642;9.956;2023-07-22T01:24:37;16.30;;;10.57;;
13698;SDS011;6921;53.642;9.956;2023-07-22T01:26:41;16.35;;;11.30;;
13698;SDS011;6921;53.642;9.956;2023-07-22T01:28:44;15.95;;;10.60;;
13698;SDS011;6921;53.642;9.956;2023-07-22T01:30:48;17.23;;;10.73;;
13698;SDS011;6921;53.642;9.956;2023-07-22T01:32:51;18.38;;;11.00;;
13698;SDS011;6921;53.642;9.956;2023-07-22T01:34:55;17.02;;;10.63;;
13698;SDS011;6921;53.642;9.956;2023-07-22T01:36:59;16.10;;;11.07;;
13698;SDS011;6921;53.642;9.956;2023-07-22T01:39:02;19.33;;;11.02;;
13698;SDS011;6921;53.642;9.956;2023-07-22T01:41:10;15.52;;;10.15;;
13698;SDS011;6921;53.642;9.956;2023-07-22T01:43:14;18.40;;;11.98;;
13698;SDS011;6921;53.642;9.956;2023-07-22T01:45:17;15.98;;;11.52;;
13698;SDS011;6921;53.642;9.956;2023-07-22T01:47:21;20.20;;;11.75;;
13698;SDS011;6921;53.642;9.956;2023-07-22T01:49:24;15.55;;;10.82;;
13698;SDS011;6921;53.642;9.956;2023-07-22T01:51:28;13.90;;;10.43;;
13698;SDS011;6921;53.642;9.956;2023-07-22T01:53:31;20.48;;;11.25;;
13698;SDS011;6921;53.642;9.956;2023-07-22T01:55:36;18.67;;;11.07;;
13698;SDS011;6921;53.642;9.956;2023-07-22T01:57:41;15.45;;;10.63;;
13698;SDS011;6921;53.642;9.956;2023-07-22T01:59:44;17.35;;;10.52;;
13698;SDS011;6921;53.642;9.956;2023-07-22T02:01:48;15.07;;;9.85;;
13698;SDS011;6921;53.642;9.956;2023-07-22T02:03:51;18.70;;;10.95;;
13698;SDS011;6921;53.642;9.956;2023-07-22T02:06:00;13.50;;;9.73;;
13698;SDS011;6921;53.642;9.956;2023-07-22T02:08:04;15.15;;;9.43;;
13698;SDS011;6921;53.642;9.956;2023-07-22T02:10:08;15.35;;;9.68;;
13698;SDS011;6921;53.642;9.956;2023-07-22T02:12:12;17.70;;;10.25;;
13698;SDS011;6921;53.642;9.956;2023-07-22T02:14:17;16.00;;;9.63;;
13698;SDS011;6921;53.642;9.956;2023-07-22T02:16:20;16.48;;;9.93;;
13698;SDS011;6921;53.642;9.956;2023-07-22T02:18:24;16.15;;;9.60;;
13698;SDS011;6921;53.642;9.956;2023-07-22T02:20:28;17.63;;;9.55;;
13698;SDS011;6921;53.642;9.956;2023-07-22T02:22:32;14.70;;;9.57;;
13698;SDS011;6921;53.642;9.956;2023-07-22T02:24:35;14.32;;;8.90;;
13698;SDS011;6921;53.642;9.956;2023-07-22T02:26:38;17.75;;;9.77;;
13698;SDS011;6921;53.642;9.956;2023-07-22T02:28:42;14.30;;;9.05;;
13698;SDS011;6921;53.642;9.956;2023-07-22T02:30:48;14.60;;;9.00;;
13698;SDS011;6921;53.642;9.956;2023-07-22T02:32:52;16.48;;;9.27;;
13698;SDS011;6921;53.642;9.956;2023-07-22T02:34:56;14.73;;;9.15;;
13698;SDS011;6921;53.642;9.956;2023-07-22T02:37:07;15.88;;;9.43;;
13698;SDS011;6921;53.642;9.956;2023-07-22T02:39:11;13.05;;;8.63;;
13698;SDS011;6921;53.642;9.956;2023-07-22T02:41:15;11.95;;;8.13;;
13698;SDS011;6921;53.642;9.956;2023-07-22T02:43:18;17.10;;;8.82;;
13698;SDS011;6921;53.642;9.956;2023-07-22T02:45:21;14.07;;;9.00;;
13698;SDS011;6921;53.642;9.956;2023-07-22T02:47:27;14.00;;;9.25;;
13698;SDS011;6921;53.642;9.956;2023-07-22T02:49:31;16.13;;;9.38;;
13698;SDS011;6921;53.642;9.956;2023-07-22T02:51:34;15.35;;;8.70;;
13698;SDS011;6921;53.642;9.956;2023-07-22T02:53:38;15.63;;;8.77;;
13698;SDS011;6921;53.642;9.956;2023-07-22T02:55:42;15.13;;;9.23;;
13698;SDS011;6921;53.642;9.956;2023-07-22T02:57:47;14.00;;;8.48;;
13698;SDS011;6921;53.642;9.956;2023-07-22T02:59:51;15.63;;;9.35;;
13698;SDS011;6921;53.642;9.956;2023-07-22T03:01:54;16.58;;;8.77;;
13698;SDS011;6921;53.642;9.956;2023-07-22T03:04:00;15.20;;;9.20;;
13698;SDS011;6921;53.642;9.956;2023-07-22T03:06:02;14.43;;;8.63;;
13698;SDS011;6921;53.642;9.956;2023-07-22T03:08:06;15.73;;;9.50;;
13698;SDS011;6921;53.642;9.956;2023-07-22T03:10:10;16.10;;;8.90;;
13698;SDS011;6921;53.642;9.956;2023-07-22T03:12:14;16.58;;;9.20;;
13698;SDS011;6921;53.642;9.956;2023-07-22T03:14:17;15.48;;;8.70;;
13698;SDS011;6921;53.642;9.956;2023-07-22T03:16:22;14.27;;;8.25;;
13698;SDS011;6921;53.642;9.956;2023-07-22T03:18:26;16.67;;;9.10;;
13698;SDS011;6921;53.642;9.956;2023-07-22T03:20:30;14.93;;;9.18;;
13698;SDS011;6921;53.642;9.956;2023-07-22T03:22:34;16.90;;;9.88;;
13698;SDS011;6921;53.642;9.956;2023-07-22T03:24:38;17.70;;;9.57;;
13698;SDS011;6921;53.642;9.956;2023-07-22T03:26:41;17.73;;;9.60;;
13698;SDS011;6921;53.642;9.956;2023-07-22T03:28:45;15.38;;;9.60;;
13698;SDS011;6921;53.642;9.956;2023-07-22T03:30:49;15.35;;;9.27;;
13698;SDS011;6921;53.642;9.956;2023-07-22T03:32:54;19.83;;;9.95;;
13698;SDS011;6921;53.642;9.956;2023-07-22T03:34:58;20.05;;;8.88;;
13698;SDS011;6921;53.642;9.956;2023-07-22T03:37:04;17.95;;;9.32;;
13698;SDS011;6921;53.642;9.956;2023-07-22T03:39:08;16.67;;;9.77;;
13698;SDS011;6921;53.642;9.956;2023-07-22T03:41:11;13.50;;;9.15;;
13698;SDS011;6921;53.642;9.956;2023-07-22T03:43:15;13.82;;;8.77;;
13698;SDS011;6921;53.642;9.956;2023-07-22T03:45:19;15.18;;;9.52;;
13698;SDS011;6921;53.642;9.956;2023-07-22T03:47:22;17.45;;;9.60;;
13698;SDS011;6921;53.642;9.956;2023-07-22T03:49:26;15.32;;;8.70;;
13698;SDS011;6921;53.642;9.956;2023-07-22T03:51:30;17.77;;;9.63;;
13698;SDS011;6921;53.642;9.956;2023-07-22T03:53:35;22.27;;;10.02;;
13698;SDS011;6921;53.642;9.956;2023-07-22T03:55:39;19.15;;;9.38;;
13698;SDS011;6921;53.642;9.956;2023-07-22T03:57:42;16.50;;;9.13;;
13698;SDS011;6921;53.642;9.956;2023-07-22T03:59:46;15.98;;;8.52;;
13698;SDS011;6921;53.642;9.956;2023-07-22T04:01:49;15.85;;;7.97;;
13698;SDS011;6921;53.642;9.956;2023-07-22T04:03:53;17.42;;;8.70;;
13698;SDS011;6921;53.642;9.956;2023-07-22T04:05:57;16.17;;;8.38;;
13698;SDS011;6921;53.642;9.956;2023-07-22T04:08:03;13.95;;;9.57;;
13698;SDS011;6921;53.642;9.956;2023-07-22T04:10:08;15.63;;;9.77;;
13698;SDS011;6921;53.642;9.956;2023-07-22T04:12:12;17.67;;;8.95;;
13698;SDS011;6921;53.642;9.956;2023-07-22T04:14:16;14.50;;;8.82;;
13698;SDS011;6921;53.642;9.956;2023-07-22T04:16:20;18.02;;;9.30;;
13698;SDS011;6921;53.642;9.956;2023-07-22T04:18:23;14.70;;;8.50;;
13698;SDS011;6921;53.642;9.956;2023-07-22T04:20:26;11.90;;;8.30;;
13698;SDS011;6921;53.642;9.956;2023-07-22T04:22:31;15.80;;;8.75;;
13698;SDS011;6921;53.642;9.956;2023-07-22T04:24:34;15.35;;;7.95;;
13698;SDS011;6921;53.642;9.956;2023-07-22T04:26:40;12.57;;;8.20;;
13698;SDS011;6921;53.642;9.956;2023-07-22T04:28:46;14.48;;;8.90;;
13698;SDS011;6921;53.642;9.956;2023-07-22T04:30:57;12.35;;;7.88;;
13698;SDS011;6921;53.642;9.956;2023-07-22T04:33:01;13.40;;;8.48;;
13698;SDS011;6921;53.642;9.956;2023-07-22T04:35:07;13.20;;;8.40;;
13698;SDS011;6921;53.642;9.956;2023-07-22T04:37:11;15.43;;;8.57;;
13698;SDS011;6921;53.642;9.956;2023-07-22T04:39:14;17.05;;;9.07;;
13698;SDS011;6921;53.642;9.956;2023-07-22T04:41:17;15.50;;;8.73;;
13698;SDS011;6921;53.642;9.956;2023-07-22T04:43:22;17.25;;;8.68;;
13698;SDS011;6921;53.642;9.956;2023-07-22T04:45:26;12.43;;;8.50;;
13698;SDS011;6921;53.642;9.956;2023-07-22T04:47:30;16.23;;;8.40;;
13698;SDS011;6921;53.642;9.956;2023-07-22T04:49:33;12.75;;;9.05;;
13698;SDS011;6921;53.642;9.956;2023-07-22T04:51:37;16.33;;;9.13;;
13698;SDS011;6921;53.642;9.956;2023-07-22T04:53:41;14.98;;;9.68;;
13698;SDS011;6921;53.642;9.956;2023-07-22T04:55:44;14.10;;;8.23;;
13698;SDS011;6921;53.642;9.956;2023-07-22T04:57:47;13.70;;;9.10;;
13698;SDS011;6921;53.642;9.956;2023-07-22T04:59:54;12.68;;;8.60;;
13698;SDS011;6921;53.642;9.956;2023-07-22T05:01:57;15.00;;;8.63;;
13698;SDS011;6921;53.642;9.956;2023-07-22T05:04:01;15.63;;;8.68;;
13698;SDS011;6921;53.642;9.956;2023-07-22T05:06:06;15.05;;;9.95;;
13698;SDS011;6921;53.642;9.956;2023-07-22T05:08:10;15.43;;;9.05;;
13698;SDS011;6921;53.642;9.956;2023-07-22T05:10:14;13.05;;;8.38;;
13698;SDS011;6921;53.642;9.956;2023-07-22T05:12:17;12.20;;;8.18;;
13698;SDS011;6921;53.642;9.956;2023-07-22T05:14:21;12.52;;;8.35;;
13698;SDS011;6921;53.642;9.956;2023-07-22T05:16:26;14.43;;;9.35;;
13698;SDS011;6921;53.642;9.956;2023-07-22T05:18:30;16.60;;;8.63;;
13698;SDS011;6921;53.642;9.956;2023-07-22T05:20:32;14.07;;;7.90;;
13698;SDS011;6921;53.642;9.956;2023-07-22T05:22:36;13.93;;;8.10;;
13698;SDS011;6921;53.642;9.956;2023-07-22T05:24:39;11.05;;;7.68;;
13698;SDS011;6921;53.642;9.956;2023-07-22T05:26:42;10.82;;;7.82;;
13698;SDS011;6921;53.642;9.956;2023-07-22T05:28:59;11.55;;;7.68;;
13698;SDS011;6921;53.642;9.956;2023-07-22T05:31:05;13.80;;;8.02;;
13698;SDS011;6921;53.642;9.956;2023-07-22T05:33:09;14.75;;;8.40;;
13698;SDS011;6921;53.642;9.956;2023-07-22T05:35:13;14.90;;;7.47;;
13698;SDS011;6921;53.642;9.956;2023-07-22T05:37:17;11.68;;;7.60;;
13698;SDS011;6921;53.642;9.956;2023-07-22T05:39:20;15.23;;;8.88;;
13698;SDS011;6921;53.642;9.956;2023-07-22T05:41:27;11.30;;;6.40;;
13698;SDS011;6921;53.642;9.956;2023-07-22T05:43:31;12.75;;;8.13;;
13698;SDS011;6921;53.642;9.956;2023-07-22T05:45:36;12.20;;;7.30;;
13698;SDS011;6921;53.642;9.956;2023-07-22T05:47:41;10.23;;;6.93;;
13698;SDS011;6921;53.642;9.956;2023-07-22T05:49:46;11.98;;;7.18;;
13698;SDS011;6921;53.642;9.956;2023-07-22T05:51:50;9.63;;;5.88;;
13698;SDS011;6921;53.642;9.956;2023-07-22T05:53:54;10.35;;;6.97;;
13698;SDS011;6921;53.642;9.956;2023-07-22T05:56:01;10.63;;;6.55;;
13698;SDS011;6921;53.642;9.956;2023-07-22T05:58:04;11.95;;;6.80;;
13698;SDS011;6921;53.642;9.956;2023-07-22T06:00:09;10.32;;;6.25;;
13698;SDS011;6921;53.642;9.956;2023-07-22T06:02:17;11.40;;;5.72;;
13698;SDS011;6921;53.642;9.956;2023-07-22T06:04:20;10.52;;;5.32;;
13698;SDS011;6921;53.642;9.956;2023-07-22T06:06:27;7.65;;;5.32;;
13698;SDS011;6921;53.642;9.956;2023-07-22T06:08:32;8.10;;;5.43;;
13698;SDS011;6921;53.642;9.956;2023-07-22T06:10:37;8.95;;;5.45;;
13698;SDS011;6921;53.642;9.956;2023-07-22T06:12:41;6.97;;;4.88;;
13698;SDS011;6921;53.642;9.956;2023-07-22T06:14:45;6.05;;;4.57;;
13698;SDS011;6921;53.642;9.956;2023-07-22T06:16:47;7.35;;;4.68;;
13698;SDS011;6921;53.642;9.956;2023-07-22T06:18:51;7.63;;;4.32;;
13698;SDS011;6921;53.642;9.956;2023-07-22T06:20:55;6.57;;;4.05;;
13698;SDS011;6921;53.642;9.956;2023-07-22T06:23:03;6.43;;;3.88;;
13698;SDS011;6921;53.642;9.956;2023-07-22T06:25:09;7.40;;;4.00;;
13698;SDS011;6921;53.642;9.956;2023-07-22T06:27:12;5.53;;;3.90;;
13698;SDS011;6921;53.642;9.956;2023-07-22T06:29:17;8.60;;;4.35;;
13698;SDS011;6921;53.642;9.956;2023-07-22T06:31:20;5.10;;;3.88;;
13698;SDS011;6921;53.642;9.956;2023-07-22T06:33:29;7.63;;;4.80;;
13698;SDS011;6921;53.642;9.956;2023-07-22T06:35:32;8.18;;;5.35;;
13698;SDS011;6921;53.642;9.956;2023-07-22T06:37:37;10.75;;;4.75;;
13698;SDS011;6921;53.642;9.956;2023-07-22T06:39:43;6.00;;;4.22;;
13698;SDS011;6921;53.642;9.956;2023-07-22T06:41:48;8.88;;;4.65;;
13698;SDS011;6921;53.642;9.956;2023-07-22T06:43:51;6.75;;;4.20;;
13698;SDS011;6921;53.642;9.956;2023-07-22T06:45:55;7.13;;;4.53;;
13698;SDS011;6921;53.642;9.956;2023-07-22T06:47:59;9.00;;;5.05;;
13698;SDS011;6921;53.642;9.956;2023-07-22T06:50:06;9.15;;;4.18;;
13698;SDS011;6921;53.642;9.956;2023-07-22T06:52:10;10.07;;;4.60;;
13698;SDS011;6921;53.642;9.956;2023-07-22T06:54:15;5.97;;;3.67;;
13698;SDS011;6921;53.642;9.956;2023-07-22T06:56:20;5.00;;;3.33;;
13698;SDS011;6921;53.642;9.956;2023-07-22T06:58:26;4.57;;;3.33;;
13698;SDS011;6921;53.642;9.956;2023-07-22T07:00:29;3.92;;;3.08;;
13698;SDS011;6921;53.642;9.956;2023-07-22T07:02:33;5.80;;;3.33;;
13698;SDS011;6921;53.642;9.956;2023-07-22T07:04:36;4.70;;;3.10;;
13698;SDS011;6921;53.642;9.956;2023-07-22T07:06:40;4.65;;;2.88;;
13698;SDS011;6921;53.642;9.956;2023-07-22T07:08:47;4.78;;;2.60;;
13698;SDS011;6921;53.642;9.956;2023-07-22T07:10:50;2.97;;;2.13;;
13698;SDS011;6921;53.642;9.956;2023-07-22T07:12:57;5.63;;;2.67;;
13698;SDS011;6921;53.642;9.956;2023-07-22T07:15:01;3.67;;;2.45;;
13698;SDS011;6921;53.642;9.956;2023-07-22T07:17:05;3.80;;;2.58;;
13698;SDS011;6921;53.642;9.956;2023-07-22T07:19:08;7.70;;;2.47;;
13698;SDS011;6921;53.642;9.956;2023-07-22T07:21:12;2.95;;;2.38;;
13698;SDS011;6921;53.642;9.956;2023-07-22T07:23:14;5.32;;;2.67;;
13698;SDS011;6921;53.642;9.956;2023-07-22T07:25:18;4.95;;;2.53;;
13698;SDS011;6921;53.642;9.956;2023-07-22T07:27:22;3.75;;;2.60;;
13698;SDS011;6921;53.642;9.956;2023-07-22T07:29:26;3.22;;;2.22;;
13698;SDS011;6921;53.642;9.956;2023-07-22T07:31:50;5.22;;;2.15;;
13698;SDS011;6921;53.642;9.956;2023-07-22T07:33:54;3.05;;;2.17;;
13698;SDS011;6921;53.642;9.956;2023-07-22T07:35:58;4.63;;;1.65;;
13698;SDS011;6921;53.642;9.956;2023-07-22T07:38:00;3.25;;;1.83;;
13698;SDS011;6921;53.642;9.956;2023-07-22T07:40:05;3.97;;;1.90;;
13698;SDS011;6921;53.642;9.956;2023-07-22T07:42:08;3.20;;;2.00;;
13698;SDS011;6921;53.642;9.956;2023-07-22T07:44:11;3.50;;;1.60;;
13698;SDS011;6921;53.642;9.956;2023-07-22T07:46:17;3.63;;;1.65;;
13698;SDS011;6921;53.642;9.956;2023-07-22T07:48:21;1.65;;;1.20;;
13698;SDS011;6921;53.642;9.956;2023-07-22T07:50:25;2.20;;;1.20;;
13698;SDS011;6921;53.642;9.956;2023-07-22T07:52:29;1.30;;;1.20;;
13698;SDS011;6921;53.642;9.956;2023-07-22T07:54:32;4.40;;;1.17;;
13698;SDS011;6921;53.642;9.956;2023-07-22T07:56:36;3.70;;;1.83;;
13698;SDS011;6921;53.642;9.956;2023-07-22T07:58:39;2.60;;;1.70;;
13698;SDS011;6921;53.642;9.956;2023-07-22T08:00:43;1.95;;;1.50;;
13698;SDS011;6921;53.642;9.956;2023-07-22T08:02:48;2.72;;;1.70;;
13698;SDS011;6921;53.642;9.956;2023-07-22T08:04:52;4.90;;;1.50;;
13698;SDS011;6921;53.642;9.956;2023-07-22T08:06:55;1.33;;;1.23;;
13698;SDS011;6921;53.642;9.956;2023-07-22T08:09:00;2.05;;;1.50;;
13698;SDS011;6921;53.642;9.956;2023-07-22T08:11:05;4.50;;;1.88;;
13698;SDS011;6921;53.642;9.956;2023-07-22T08:13:10;3.20;;;1.50;;
13698;SDS011;6921;53.642;9.956;2023-07-22T08:15:15;1.45;;;1.30;;
13698;SDS011;6921;53.642;9.956;2023-07-22T08:17:19;3.55;;;1.38;;
13698;SDS011;6921;53.642;9.956;2023-07-22T08:19:24;4.55;;;1.52;;
13698;SDS011;6921;53.642;9.956;2023-07-22T08:21:28;4.07;;;1.63;;
13698;SDS011;6921;53.642;9.956;2023-07-22T08:23:32;3.50;;;1.58;;
13698;SDS011;6921;53.642;9.956;2023-07-22T08:25:35;2.53;;;1.58;;
13698;SDS011;6921;53.642;9.956;2023-07-22T08:27:39;5.38;;;2.10;;
13698;SDS011;6921;53.642;9.956;2023-07-22T08:29:43;3.17;;;1.50;;
13698;SDS011;6921;53.642;9.956;2023-07-22T08:31:46;2.47;;;1.65;;
13698;SDS011;6921;53.642;9.956;2023-07-22T08:33:50;2.55;;;1.30;;
13698;SDS011;6921;53.642;9.956;2023-07-22T08:35:55;3.15;;;1.30;;
13698;SDS011;6921;53.642;9.956;2023-07-22T08:37:58;3.40;;;1.33;;
13698;SDS011;6921;53.642;9.956;2023-07-22T08:40:04;3.10;;;1.30;;
13698;SDS011;6921;53.642;9.956;2023-07-22T08:42:07;1.73;;;1.48;;
13698;SDS011;6921;53.642;9.956;2023-07-22T08:44:12;2.17;;;1.20;;
13698;SDS011;6921;53.642;9.956;2023-07-22T08:46:17;1.15;;;1.05;;
13698;SDS011;6921;53.642;9.956;2023-07-22T08:48:23;3.35;;;1.35;;
13698;SDS011;6921;53.642;9.956;2023-07-22T08:50:29;2.78;;;1.30;;
13698;SDS011;6921;53.642;9.956;2023-07-22T08:52:35;1.90;;;1.20;;
13698;SDS011;6921;53.642;9.956;2023-07-22T08:54:38;1.83;;;1.20;;
13698;SDS011;6921;53.642;9.956;2023-07-22T08:56:42;2.10;;;1.20;;
13698;SDS011;6921;53.642;9.956;2023-07-22T08:58:46;1.42;;;1.33;;
13698;SDS011;6921;53.642;9.956;2023-07-22T09:00:51;1.52;;;1.38;;
13698;SDS011;6921;53.642;9.956;2023-07-22T09:02:55;3.00;;;1.30;;
13698;SDS011;6921;53.642;9.956;2023-07-22T09:04:58;1.10;;;1.00;;
13698;SDS011;6921;53.642;9.956;2023-07-22T09:07:03;1.88;;;0.90;;
13698;SDS011;6921;53.642;9.956;2023-07-22T09:09:08;1.20;;;0.95;;
13698;SDS011;6921;53.642;9.956;2023-07-22T09:11:13;1.30;;;1.20;;
13698;SDS011;6921;53.642;9.956;2023-07-22T09:13:17;2.90;;;1.10;;
13698;SDS011;6921;53.642;9.956;2023-07-22T09:15:22;1.02;;;1.02;;
13698;SDS011;6921;53.642;9.956;2023-07-22T09:17:24;2.97;;;1.02;;
13698;SDS011;6921;53.642;9.956;2023-07-22T09:19:28;2.25;;;1.13;;
13698;SDS011;6921;53.642;9.956;2023-07-22T09:21:33;1.17;;;1.02;;
13698;SDS011;6921;53.642;9.956;2023-07-22T09:23:38;1.23;;;0.98;;
13698;SDS011;6921;53.642;9.956;2023-07-22T09:25:43;2.30;;;1.00;;
13698;SDS011;6921;53.642;9.956;2023-07-22T09:27:47;3.47;;;1.20;;
13698;SDS011;6921;53.642;9.956;2023-07-22T09:29:49;1.20;;;1.10;;
13698;SDS011;6921;53.642;9.956;2023-07-22T09:31:53;3.50;;;1.05;;
13698;SDS011;6921;53.642;9.956;2023-07-22T09:33:58;1.63;;;0.90;;
13698;SDS011;6921;53.642;9.956;2023-07-22T09:36:12;1.92;;;1.17;;
13698;SDS011;6921;53.642;9.956;2023-07-22T09:38:18;1.10;;;1.08;;
13698;SDS011;6921;53.642;9.956;2023-07-22T09:40:25;3.00;;;1.10;;
13698;SDS011;6921;53.642;9.956;2023-07-22T09:42:30;3.60;;;1.30;;
13698;SDS011;6921;53.642;9.956;2023-07-22T09:44:34;1.52;;;1.13;;
13698;SDS011;6921;53.642;9.956;2023-07-22T09:46:39;2.42;;;1.02;;
13698;SDS011;6921;53.642;9.956;2023-07-22T09:48:43;1.38;;;0.88;;
13698;SDS011;6921;53.642;9.956;2023-07-22T09:50:55;2.15;;;1.05;;
13698;SDS011;6921;53.642;9.956;2023-07-22T09:52:58;1.20;;;1.10;;
13698;SDS011;6921;53.642;9.956;2023-07-22T09:55:04;2.80;;;1.10;;
13698;SDS011;6921;53.642;9.956;2023-07-22T09:57:09;3.10;;;1.25;;
13698;SDS011;6921;53.642;9.956;2023-07-22T09:59:18;1.83;;;1.30;;
13698;SDS011;6921;53.642;9.956;2023-07-22T10:01:23;1.77;;;1.00;;
13698;SDS011;6921;53.642;9.956;2023-07-22T10:03:26;2.25;;;1.33;;
13698;SDS011;6921;53.642;9.956;2023-07-22T10:05:33;1.80;;;1.10;;
13698;SDS011;6921;53.642;9.956;2023-07-22T10:07:37;1.85;;;1.25;;
13698;SDS011;6921;53.642;9.956;2023-07-22T10:09:40;1.52;;;1.00;;
13698;SDS011;6921;53.642;9.956;2023-07-22T10:11:45;0.98;;;0.88;;
13698;SDS011;6921;53.642;9.956;2023-07-22T10:13:49;1.58;;;1.10;;
13698;SDS011;6921;53.642;9.956;2023-07-22T10:15:54;1.52;;;1.17;;
13698;SDS011;6921;53.642;9.956;2023-07-22T10:17:58;2.30;;;1.20;;
13698;SDS011;6921;53.642;9.956;2023-07-22T10:20:03;1.10;;;1.00;;
13698;SDS011;6921;53.642;9.956;2023-07-22T10:22:09;2.30;;;1.15;;
13698;SDS011;6921;53.642;9.956;2023-07-22T10:24:12;1.83;;;1.00;;
13698;SDS011;6921;53.642;9.956;2023-07-22T10:26:17;2.83;;;1.15;;
13698;SDS011;6921;53.642;9.956;2023-07-22T10:28:29;1.70;;;1.27;;
13698;SDS011;6921;53.642;9.956;2023-07-22T10:30:33;1.58;;;1.38;;
13698;SDS011;6921;53.642;9.956;2023-07-22T10:32:39;2.42;;;1.50;;
13698;SDS011;6921;53.642;9.956;2023-07-22T10:34:43;2.08;;;1.40;;
13698;SDS011;6921;53.642;9.956;2023-07-22T10:36:47;2.13;;;1.27;;
13698;SDS011;6921;53.642;9.956;2023-07-22T10:38:55;1.55;;;1.23;;
13698;SDS011;6921;53.642;9.956;2023-07-22T10:41:01;1.40;;;1.25;;
13698;SDS011;6921;53.642;9.956;2023-07-22T10:43:06;1.40;;;1.30;;
13698;SDS011;6921;53.642;9.956;2023-07-22T10:45:23;1.30;;;1.15;;
13698;SDS011;6921;53.642;9.956;2023-07-22T10:47:31;4.93;;;1.35;;
13698;SDS011;6921;53.642;9.956;2023-07-22T10:49:44;1.60;;;1.30;;
13698;SDS011;6921;53.642;9.956;2023-07-22T10:51:48;1.38;;;1.27;;
13698;SDS011;6921;53.642;9.956;2023-07-22T10:53:51;2.22;;;1.40;;
13698;SDS011;6921;53.642;9.956;2023-07-22T10:56:13;1.60;;;1.50;;
13698;SDS011;6921;53.642;9.956;2023-07-22T10:58:19;1.80;;;1.70;;
13698;SDS011;6921;53.642;9.956;2023-07-22T11:00:23;2.28;;;1.70;;
13698;SDS011;6921;53.642;9.956;2023-07-22T11:02:32;1.67;;;1.58;;
13698;SDS011;6921;53.642;9.956;2023-07-22T11:04:36;1.73;;;1.63;;
13698;SDS011;6921;53.642;9.956;2023-07-22T11:06:59;1.98;;;1.77;;
13698;SDS011;6921;53.642;9.956;2023-07-22T11:09:03;2.22;;;1.63;;
13698;SDS011;6921;53.642;9.956;2023-07-22T11:11:06;1.90;;;1.58;;
13698;SDS011;6921;53.642;9.956;2023-07-22T11:13:10;1.65;;;1.50;;
13698;SDS011;6921;53.642;9.956;2023-07-22T11:15:14;1.83;;;1.73;;
13698;SDS011;6921;53.642;9.956;2023-07-22T11:17:27;2.80;;;2.05;;
13698;SDS011;6921;53.642;9.956;2023-07-22T11:19:31;3.15;;;2.08;;
13698;SDS011;6921;53.642;9.956;2023-07-22T11:21:34;2.53;;;1.77;;
13698;SDS011;6921;53.642;9.956;2023-07-22T11:23:39;3.15;;;1.95;;
13698;SDS011;6921;53.642;9.956;2023-07-22T11:25:43;2.20;;;2.00;;
13698;SDS011;6921;53.642;9.956;2023-07-22T11:27:48;3.47;;;1.90;;
13698;SDS011;6921;53.642;9.956;2023-07-22T11:29:51;3.60;;;2.35;;
13698;SDS011;6921;53.642;9.956;2023-07-22T11:31:56;3.00;;;2.58;;
13698;SDS011;6921;53.642;9.956;2023-07-22T11:34:00;2.40;;;2.20;;
13698;SDS011;6921;53.642;9.956;2023-07-22T11:36:05;2.95;;;2.50;;
13698;SDS011;6921;53.642;9.956;2023-07-22T11:38:11;2.65;;;2.25;;
13698;SDS011;6921;53.642;9.956;2023-07-22T11:40:17;2.53;;;2.33;;
13698;SDS011;6921;53.642;9.956;2023-07-22T11:42:20;2.97;;;2.38;;
13698;SDS011;6921;53.642;9.956;2023-07-22T11:44:26;2.75;;;2.55;;
13698;SDS011;6921;53.642;9.956;2023-07-22T11:46:30;3.13;;;2.85;;
13698;SDS011;6921;53.642;9.956;2023-07-22T11:48:34;3.40;;;2.95;;
13698;SDS011;6921;53.642;9.956;2023-07-22T11:50:38;3.30;;;2.80;;
13698;SDS011;6921;53.642;9.956;2023-07-22T11:52:49;2.95;;;2.40;;
13698;SDS011;6921;53.642;9.956;2023-07-22T11:54:52;4.63;;;2.80;;
13698;SDS011;6921;53.642;9.956;2023-07-22T11:57:09;3.13;;;2.67;;
13698;SDS011;6921;53.642;9.956;2023-07-22T11:59:13;3.42;;;2.95;;
13698;SDS011;6921;53.642;9.956;2023-07-22T12:01:16;3.25;;;2.80;;
13698;SDS011;6921;53.642;9.956;2023-07-22T12:03:22;3.65;;;2.92;;
13698;SDS011;6921;53.642;9.956;2023-07-22T12:05:26;3.72;;;2.90;;
13698;SDS011;6921;53.642;9.956;2023-07-22T12:07:30;3.47;;;2.75;;
13698;SDS011;6921;53.642;9.956;2023-07-22T12:09:34;3.70;;;2.90;;
13698;SDS011;6921;53.642;9.956;2023-07-22T12:11:38;3.28;;;3.00;;
13698;SDS011;6921;53.642;9.956;2023-07-22T12:13:44;3.20;;;2.90;;
13698;SDS011;6921;53.642;9.956;2023-07-22T12:15:58;4.93;;;3.10;;
13698;SDS011;6921;53.642;9.956;2023-07-22T12:18:04;4.40;;;3.13;;
13698;SDS011;6921;53.642;9.956;2023-07-22T12:20:08;4.70;;;2.90;;
13698;SDS011;6921;53.642;9.956;2023-07-22T12:22:14;3.45;;;3.13;;
13698;SDS011;6921;53.642;9.956;2023-07-22T12:24:17;4.35;;;3.88;;
13698;SDS011;6921;53.642;9.956;2023-07-22T12:26:20;4.30;;;3.47;;
13698;SDS011;6921;53.642;9.956;2023-07-22T12:28:25;3.92;;;3.28;;
13698;SDS011;6921;53.642;9.956;2023-07-22T12:30:31;5.05;;;3.60;;
13698;SDS011;6921;53.642;9.956;2023-07-22T12:32:35;3.88;;;3.47;;
13698;SDS011;6921;53.642;9.956;2023-07-22T12:34:39;4.28;;;3.47;;
13698;SDS011;6921;53.642;9.956;2023-07-22T12:36:42;3.83;;;3.42;;